Andalusia, Alabama
Current Conditions -  °F | °C
As of 4:56 PM on Friday 31 Oct 2014 (Local Time) from K79J Reporting Station
Few Clouds Few Clouds  
Wind Chill: 73°   Ceiling: Unl
Heat Index: 73°   Visibility: 10mi
Dew Point: 46°   Wind: 9mph
Humidity: 38%   Direction: 340°NNW
Pressure: 29.91"   Gusts: NA
Location:  31.32°N, 86.49°W
Report Text: K79J 312156Z AUTO 34008KT 10SM FEW100 23/08 A2991 RMK AO2 SLP125 T02280078
Loading
Personal Weather Stations






























Interactive Weather Map New forecast layout! Learn more

10-Day Weather Forecast

Advertisements
Track Severe Weather on mobile